Time;durP1;ratioP1;P1;durP2;ratioP2;P2;SDS_P1;SDS_P2;PMS_P1;PMS_P2;Temp;Humidity;BMP_temperature;BMP_pressure;BME280_temperature;BME280_humidity;BME280_pressure;Samples;Min_cycle;Max_cycle;Signal;HPM_P1;HPM_P2
2022/01/17 08:59:39;;;;;;;;;;;;;;;4.65;63.96;100287.13;6161469;23;2168;-95
2022/01/17 09:04:56;;;;;;;;;;;;;;;4.66;63.87;100304.75;6154647;23;2176;-95
2022/01/17 09:07:24;;;;;;;;;;;;;;;4.64;64.04;100317.44;6131870;23;1257;-96
2022/01/17 09:09:52;;;;;;;;;;;;;;;4.63;64.10;100324.63;6155523;23;1363;-96
2022/01/17 09:12:20;;;;;;;;;;;;;;;4.63;63.95;100345.97;6156753;23;1283;-95
2022/01/17 09:14:50;;;;;;;;;;;;;;;4.62;64.08;100352.34;6157047;23;1921;-95
2022/01/17 09:17:33;;;;;;;;;;;;;;;4.63;64.08;100361.16;6158132;23;1360;-93
2022/01/17 09:28:16;;;;;;;;;;;;;;;4.64;64.09;100408.16;6152273;23;1272;-95
2022/01/17 09:30:43;;;;;;;;;;;;;;;4.64;64.00;100424.16;6125760;23;1692;-94
2022/01/17 13:23:00;;;;;;;;;;;;;;;5.07;65.41;100995.66;6153222;23;739;-95
2022/01/17 13:29:06;;;;;;;;;;;;;;;5.08;65.68;100999.97;6155298;23;763;-96
2022/01/17 13:35:15;;;;;;;;;;;;;;;5.09;65.71;101009.63;6154824;23;1897;-96
2022/01/17 13:38:11;;;;;;;;;;;;;;;5.10;65.69;101019.31;6154060;23;822;-96
2022/01/17 13:44:22;;;;;;;;;;;;;;;5.12;65.91;101034.19;6150613;23;758;-95
2022/01/17 13:50:26;;;;;;;;;;;;;;;5.13;65.66;101038.50;6154189;23;1276;-95
2022/01/17 13:56:26;;;;;;;;;;;;;;;5.14;65.77;101037.47;6145163;23;1909;-94
2022/01/17 14:02:24;;;;;;;;;;;;;;;5.16;65.84;101029.31;6151224;23;645;-95
2022/01/17 14:05:16;;;;;;;;;;;;;;;5.15;65.94;101047.19;6151527;23;779;-94
2022/01/17 14:08:08;;;;;;;;;;;;;;;5.18;65.92;101070.03;6152525;23;1338;-95
2022/01/17 14:10:59;;;;;;;;;;;;;;;5.18;65.72;101078.06;6154065;23;703;-96
2022/01/17 14:14:00;;;;;;;;;;;;;;;5.19;65.78;101082.38;6150658;23;751;-94
2022/01/17 14:16:53;;;;;;;;;;;;;;;5.20;65.75;101097.38;6150839;23;1878;-95
2022/01/17 14:22:54;;;;;;;;;;;;;;;5.21;65.93;101107.91;6149148;23;1429;-94
2022/01/17 14:25:46;;;;;;;;;;;;;;;5.21;66.03;101105.25;6151100;23;810;-94
2022/01/17 14:28:14;;;;;;;;;;;;;;;5.21;66.12;101104.41;6124110;23;1407;-96
2022/01/17 14:30:42;;;;;;;;;;;;;;;5.22;65.90;101114.09;6127248;23;1486;-95
2022/01/17 14:33:09;;;;;;;;;;;;;;;5.23;65.90;101123.75;6123574;23;1186;-95
2022/01/17 14:35:36;;;;;;;;;;;;;;;5.22;65.88;101122.09;6122324;23;1913;-95
2022/01/17 14:38:02;;;;;;;;;;;;;;;5.23;65.99;101129.94;6125552;23;1278;-95
2022/01/17 14:40:45;;;;;;;;;;;;;;;5.23;66.14;101134.44;6125630;23;1643;-95
2022/01/17 14:43:21;;;;;;;;;;;;;;;5.23;66.05;101129.09;6125566;23;1363;-95
2022/01/17 14:45:54;;;;;;;;;;;;;;;5.22;66.13;101138.94;6127162;23;1065;-96
2022/01/17 14:48:26;;;;;;;;;;;;;;;5.22;66.05;101149.63;6123308;23;1340;-93
2022/01/17 14:50:53;;;;;;;;;;;;;;;5.22;65.99;101144.28;6120272;23;1500;-94
2022/01/17 14:53:20;;;;;;;;;;;;;;;5.23;66.32;101145.13;6119647;23;1300;-95
2022/01/17 15:01:27;;;;;;;;;;;;;;;5.23;66.08;101147.78;6121613;23;1372;-94
2022/01/17 15:04:03;;;;;;;;;;;;;;;5.22;66.27;101148.81;6098862;23;1511;-94
2022/01/17 15:06:30;;;;;;;;;;;;;;;5.23;66.19;101151.31;6119022;23;1160;-94
2022/01/17 15:08:56;;;;;;;;;;;;;;;5.23;66.00;101150.47;6120443;23;1345;-94
2022/01/17 15:11:23;;;;;;;;;;;;;;;5.22;66.15;101151.47;6120545;23;1312;-94
2022/01/17 15:13:50;;;;;;;;;;;;;;;5.22;66.22;101146.13;6121800;23;1407;-93
2022/01/17 15:16:17;;;;;;;;;;;;;;;5.21;66.20;101157.81;6150121;23;1878;-93
2022/01/17 15:18:45;;;;;;;;;;;;;;;5.21;66.07;101163.16;6127154;23;1220;-96
2022/01/17 15:21:14;;;;;;;;;;;;;;;5.21;66.12;101174.69;6126905;23;1232;-95
2022/01/17 15:23:58;;;;;;;;;;;;;;;5.21;66.02;101180.03;6122272;23;1570;-95
2022/01/17 15:26:25;;;;;;;;;;;;;;;5.19;66.17;101184.69;6118699;23;1291;-94
2022/01/17 15:28:51;;;;;;;;;;;;;;;5.20;66.11;101196.19;6122434;23;1302;-95
2022/01/17 15:31:19;;;;;;;;;;;;;;;5.21;66.10;101204.06;6124385;23;1232;-94
2022/01/17 15:33:47;;;;;;;;;;;;;;;5.19;66.17;101205.22;6123421;23;1314;-96
2022/01/17 15:36:14;;;;;;;;;;;;;;;5.18;66.05;101201.72;6117117;23;1909;-93
2022/01/17 15:38:42;;;;;;;;;;;;;;;5.18;65.91;101206.25;6119860;23;1599;-95
2022/01/17 15:41:13;;;;;;;;;;;;;;;5.18;66.30;101211.56;6113636;23;1198;-94
2022/01/17 15:44:05;;;;;;;;;;;;;;;5.16;66.21;101213.56;6138682;23;589;-93
2022/01/17 15:46:33;;;;;;;;;;;;;;;5.17;66.33;101223.25;6115194;23;1263;-95
2022/01/17 15:49:00;;;;;;;;;;;;;;;5.17;66.06;101225.91;6119366;23;1260;-95
2022/01/17 15:51:26;;;;;;;;;;;;;;;5.17;66.18;101225.91;6119818;23;1381;-95
2022/01/17 15:53:53;;;;;;;;;;;;;;;5.16;66.04;101235.75;6118594;23;1209;-94
2022/01/17 15:56:19;;;;;;;;;;;;;;;5.15;66.21;101246.63;6115912;23;1891;-94
2022/01/17 15:58:46;;;;;;;;;;;;;;;5.15;66.33;101243.97;6116834;23;1326;-93
2022/01/17 16:01:12;;;;;;;;;;;;;;;5.14;66.20;101258.28;6124896;23;1289;-95
2022/01/17 16:03:42;;;;;;;;;;;;;;;5.14;66.46;101251.13;6120891;23;1577;-95
2022/01/17 16:06:09;;;;;;;;;;;;;;;5.13;66.41;101259.31;6116560;23;1315;-95
2022/01/17 16:08:48;;;;;;;;;;;;;;;5.14;66.16;101259.13;6116493;23;1274;-94
2022/01/17 16:11:15;;;;;;;;;;;;;;;5.12;66.26;101257.66;6115102;23;1285;-95
2022/01/17 16:13:44;;;;;;;;;;;;;;;5.11;66.20;101261.28;6114986;23;1292;-94
2022/01/17 16:16:10;;;;;;;;;;;;;;;5.11;66.35;101263.97;6119873;23;1905;-94
2022/01/17 16:18:39;;;;;;;;;;;;;;;5.10;66.39;101271.16;6118357;23;1192;-94
2022/01/17 16:21:07;;;;;;;;;;;;;;;5.09;66.29;101274.84;6113116;23;1193;-93
2022/01/17 16:23:34;;;;;;;;;;;;;;;5.11;66.08;101280.00;6117995;23;1514;-94
2022/01/17 16:26:01;;;;;;;;;;;;;;;5.09;66.35;101282.84;6112390;23;1292;-94
2022/01/17 16:28:28;;;;;;;;;;;;;;;5.08;66.37;101274.97;6114801;23;1351;-94
2022/01/17 16:30:55;;;;;;;;;;;;;;;5.07;66.24;101290.19;6117411;23;1272;-95
2022/01/17 16:33:22;;;;;;;;;;;;;;;5.06;66.33;101293.84;6115875;23;1407;-94
2022/01/17 16:35:48;;;;;;;;;;;;;;;5.06;66.25;101299.19;6113837;23;1921;-94
2022/01/17 16:44:06;;;;;;;;;;;;;;;5.04;66.30;101311.88;6140594;23;1301;-96
2022/01/17 16:51:55;;;;;;;;;;;;;;;5.02;66.35;101337.88;6146729;23;1230;-96
2022/01/17 16:54:25;;;;;;;;;;;;;;;5.01;66.27;101334.38;6154004;23;1262;-96
2022/01/17 16:56:56;;;;;;;;;;;;;;;4.99;66.31;101333.72;6149319;23;1952;-96
2022/01/17 16:59:23;;;;;;;;;;;;;;;5.00;66.25;101334.56;6150212;23;1370;-96
2022/01/17 17:01:52;;;;;;;;;;;;;;;4.98;66.18;101336.56;6146005;23;3621;-95
2022/01/17 17:07:03;;;;;;;;;;;;;;;4.98;66.40;101336.56;6137582;23;1378;-94
2022/01/17 17:09:29;;;;;;;;;;;;;;;4.96;66.42;101343.88;6139924;23;1242;-94
2022/01/17 17:11:56;;;;;;;;;;;;;;;4.95;66.48;101356.41;6137147;23;1133;-94
2022/01/17 17:14:22;;;;;;;;;;;;;;;4.94;66.36;101351.22;6137484;23;1347;-93
2022/01/17 17:16:49;;;;;;;;;;;;;;;4.94;66.31;101369.91;6139265;23;1905;-94
2022/01/17 17:19:15;;;;;;;;;;;;;;;4.94;66.27;101375.25;6139384;23;1407;-95
2022/01/17 17:21:42;;;;;;;;;;;;;;;4.93;66.25;101374.41;6140574;23;1367;-95
2022/01/17 17:24:11;;;;;;;;;;;;;;;4.91;66.31;101381.75;6139892;23;1185;-96
2022/01/17 17:26:37;;;;;;;;;;;;;;;4.90;66.36;101385.41;6135564;23;1316;-94
2022/01/17 17:29:03;;;;;;;;;;;;;;;4.89;66.38;101382.91;6135121;23;1236;-94
2022/01/17 17:31:30;;;;;;;;;;;;;;;4.88;66.35;101392.78;6141329;23;1183;-93
2022/01/17 17:33:57;;;;;;;;;;;;;;;4.88;66.29;101395.44;6140906;23;1387;-94
2022/01/17 17:36:23;;;;;;;;;;;;;;;4.88;66.41;101389.25;6139711;23;1909;-94
2022/01/17 17:38:50;;;;;;;;;;;;;;;4.87;66.41;101400.94;6142223;23;1244;-94
2022/01/17 17:41:18;;;;;;;;;;;;;;;4.86;66.35;101402.75;6137924;23;3641;-96
2022/01/17 17:52:48;;;;;;;;;;;;;;;4.83;66.42;101407.59;6151062;23;1060;-95
2022/01/17 17:55:33;;;;;;;;;;;;;;;4.79;66.50;101404.38;6138170;23;957;-96
2022/01/17 17:58:01;;;;;;;;;;;;;;;4.80;66.37;101411.41;6151633;23;1869;-95
2022/01/17 18:00:29;;;;;;;;;;;;;;;4.78;66.51;101416.91;6148420;23;1380;-95
2022/01/17 18:02:55;;;;;;;;;;;;;;;4.77;66.42;101441.09;6148958;23;1161;-95
2022/01/17 18:05:23;;;;;;;;;;;;;;;4.76;66.57;101444.75;6146992;23;1482;-95
2022/01/17 18:07:50;;;;;;;;;;;;;;;4.76;66.52;101444.75;6147230;23;1262;-96
2022/01/17 18:10:17;;;;;;;;;;;;;;;4.75;66.41;101451.91;6145491;23;1131;-94
2022/01/17 18:15:28;;;;;;;;;;;;;;;4.73;66.25;101453.06;6139039;23;1359;-95
2022/01/17 18:17:55;;;;;;;;;;;;;;;4.72;66.50;101462.91;6131087;23;1901;-95
2022/01/17 18:20:21;;;;;;;;;;;;;;;4.70;66.58;101456.06;6138354;23;1460;-96
2022/01/17 18:22:47;;;;;;;;;;;;;;;4.72;66.35;101446.06;6136356;23;1329;-95
2022/01/17 18:25:17;;;;;;;;;;;;;;;4.69;66.52;101446.38;6138381;23;1461;-95
2022/01/17 18:27:44;;;;;;;;;;;;;;;4.69;66.44;101451.72;6139683;23;847;-94
2022/01/17 18:30:11;;;;;;;;;;;;;;;4.67;66.48;101465.22;6134789;23;1102;-95
2022/01/17 18:32:38;;;;;;;;;;;;;;;4.67;66.44;101472.38;6134734;23;1206;-95
2022/01/17 18:35:06;;;;;;;;;;;;;;;4.65;66.53;101475.22;6140320;23;1176;-95
2022/01/17 18:37:33;;;;;;;;;;;;;;;4.66;66.38;101473.41;6140387;23;1929;-95
2022/01/17 18:40:00;;;;;;;;;;;;;;;4.64;66.38;101480.72;6140449;23;1383;-95
2022/01/17 18:42:26;;;;;;;;;;;;;;;4.63;66.57;101471.03;6115886;23;1275;-95
2022/01/17 18:47:29;;;;;;;;;;;;;;;4.61;66.53;101465.84;6142501;23;1127;-95
2022/01/17 18:49:56;;;;;;;;;;;;;;;4.60;66.40;101474.03;6127990;23;1375;-95
2022/01/17 18:52:30;;;;;;;;;;;;;;;4.61;66.38;101486.38;6129907;23;889;-94
2022/01/17 18:54:56;;;;;;;;;;;;;;;4.59;66.10;101470.53;6105091;23;1275;-95
2022/01/17 18:57:23;;;;;;;;;;;;;;;4.58;66.30;101479.50;6116920;23;1889;-95
2022/01/17 19:02:34;;;;;;;;;;;;;;;4.58;66.21;101476.00;6117654;23;1580;-95
2022/01/17 19:07:50;;;;;;;;;;;;;;;4.55;66.30;101472.66;6119556;23;1643;-96
2022/01/17 19:10:21;;;;;;;;;;;;;;;4.58;66.34;101484.00;6151284;23;1321;-95
2022/01/17 19:12:48;;;;;;;;;;;;;;;4.54;66.37;101472.81;6149119;23;1063;-96
2022/01/17 19:15:20;;;;;;;;;;;;;;;4.55;66.19;101466.50;6146344;23;1149;-96
2022/01/17 19:17:56;;;;;;;;;;;;;;;4.54;66.10;101487.00;6148131;23;1878;-95
2022/01/17 19:23:14;;;;;;;;;;;;;;;4.54;66.29;101507.50;6119640;23;1337;-94
2022/01/17 19:25:50;;;;;;;;;;;;;;;4.53;66.16;101497.84;6149573;23;1430;-94
2022/01/17 19:28:28;;;;;;;;;;;;;;;4.53;66.18;101512.00;6126860;23;1637;-96
2022/01/17 19:30:54;;;;;;;;;;;;;;;4.52;66.21;101513.00;6152820;23;1313;-95
2022/01/17 19:36:05;;;;;;;;;;;;;;;4.51;66.12;101527.34;6152322;23;1036;-94
2022/01/17 19:38:32;;;;;;;;;;;;;;;4.52;66.18;101528.16;6150201;23;1476;-95
2022/01/17 19:41:12;;;;;;;;;;;;;;;4.52;65.82;101523.66;6155531;23;866;-96
2022/01/17 19:43:44;;;;;;;;;;;;;;;4.52;66.06;101529.00;6150895;23;934;-94
2022/01/17 19:48:55;;;;;;;;;;;;;;;4.50;66.03;101539.00;6107825;23;1418;-95
2022/01/17 19:51:50;;;;;;;;;;;;;;;4.53;66.00;101553.88;6149297;23;957;-95
2022/01/17 19:54:43;;;;;;;;;;;;;;;4.51;65.95;101554.00;6126601;23;1396;-96
2022/01/17 19:57:22;;;;;;;;;;;;;;;4.53;65.95;101553.88;6155373;23;1910;-96
2022/01/17 19:59:50;;;;;;;;;;;;;;;4.51;65.89;101559.34;6129547;23;1476;-96
2022/01/17 20:02:20;;;;;;;;;;;;;;;4.50;65.95;101562.16;6127870;23;1276;-96
2022/01/17 20:04:49;;;;;;;;;;;;;;;4.53;65.92;101570.72;6152688;23;1152;-95
2022/01/17 20:07:22;;;;;;;;;;;;;;;4.51;65.64;101578.03;6151585;23;947;-95
2022/01/17 20:09:49;;;;;;;;;;;;;;;4.52;65.69;101594.88;6123023;23;1268;-96
2022/01/17 20:12:15;;;;;;;;;;;;;;;4.51;65.79;101594.03;6128457;23;1419;-96
2022/01/17 20:14:42;;;;;;;;;;;;;;;4.55;65.84;101591.88;6149347;23;1382;-95
2022/01/17 20:17:16;;;;;;;;;;;;;;;4.53;65.89;101577.88;6147971;23;1955;-95
2022/01/17 20:19:47;;;;;;;;;;;;;;;4.51;65.49;101575.34;6124580;23;1459;-96
2022/01/17 20:22:22;;;;;;;;;;;;;;;4.52;65.71;101570.84;6146036;23;1284;-96
2022/01/17 20:25:04;;;;;;;;;;;;;;;4.52;65.71;101563.69;6145278;23;1226;-96
2022/01/17 20:27:31;;;;;;;;;;;;;;;4.54;65.56;101563.53;6110432;23;1393;-94
2022/01/17 20:29:57;;;;;;;;;;;;;;;4.54;65.57;101563.53;6126871;23;1280;-94
2022/01/17 20:32:28;;;;;;;;;;;;;;;4.51;65.47;101547.84;6124277;23;1240;-94
2022/01/17 20:34:54;;;;;;;;;;;;;;;4.51;65.51;101559.34;6126986;23;1207;-94
2022/01/17 20:37:20;;;;;;;;;;;;;;;4.53;65.52;101553.88;6135120;23;1940;-94
2022/01/17 20:39:47;;;;;;;;;;;;;;;4.52;65.52;101552.19;6136573;23;1265;-94
2022/01/17 20:44:58;;;;;;;;;;;;;;;4.53;65.38;101565.38;6129648;23;1130;-95
2022/01/17 20:52:52;;;;;;;;;;;;;;;4.55;65.27;101603.38;6137597;23;1005;-94
2022/01/17 20:58:28;;;;;;;;;;;;;;;4.53;65.42;101602.72;6139917;23;1826;-95
2022/01/17 21:00:57;;;;;;;;;;;;;;;4.54;65.27;101601.72;6145843;23;1185;-95
2022/01/17 21:03:24;;;;;;;;;;;;;;;4.55;65.33;101594.56;6143116;23;1288;-95
2022/01/17 21:08:31;;;;;;;;;;;;;;;4.52;65.16;101601.03;6140274;23;1469;-94
2022/01/17 21:10:58;;;;;;;;;;;;;;;4.55;65.17;101605.22;6142719;23;1200;-93
2022/01/17 21:13:45;;;;;;;;;;;;;;;4.57;65.19;101611.25;6152066;23;1187;-93
2022/01/17 21:19:11;;;;;;;;;;;;;;;4.55;65.06;101608.72;6150904;23;1704;-96
2022/01/17 21:21:38;;;;;;;;;;;;;;;4.53;65.07;101618.75;6142579;23;937;-96
2022/01/17 21:24:05;;;;;;;;;;;;;;;4.54;65.32;101625.75;6118995;23;1355;-96
2022/01/17 21:26:39;;;;;;;;;;;;;;;4.55;64.92;101635.41;6122253;23;1387;-96
2022/01/17 21:29:09;;;;;;;;;;;;;;;4.57;65.07;101626.44;6140717;23;1148;-96
2022/01/17 21:31:36;;;;;;;;;;;;;;;4.56;65.07;101628.28;6121076;23;1348;-96
2022/01/17 21:34:05;;;;;;;;;;;;;;;4.54;65.01;101635.56;6107325;23;1260;-95
2022/01/17 21:36:37;;;;;;;;;;;;;;;4.58;64.87;101631.59;6106272;23;1185;-96
2022/01/17 21:39:15;;;;;;;;;;;;;;;4.62;64.80;101646.31;6143498;23;909;-96
2022/01/17 21:41:44;;;;;;;;;;;;;;;4.59;64.98;101646.63;6107008;23;1247;-96
2022/01/17 21:52:43;;;;;;;;;;;;;;;4.59;64.74;101651.97;6125481;23;1295;-96
2022/01/17 21:55:15;;;;;;;;;;;;;;;4.54;65.06;101662.25;6128333;23;1719;-95
2022/01/17 21:57:51;;;;;;;;;;;;;;;4.55;65.02;101675.44;6128145;23;1887;-95
2022/01/17 22:03:31;;;;;;;;;;;;;;;4.59;64.87;101683.13;6117907;23;1017;-96
2022/01/17 22:08:57;;;;;;;;;;;;;;;4.59;64.70;101694.66;6150667;23;3827;-95
2022/01/17 22:11:35;;;;;;;;;;;;;;;4.58;64.95;101690.31;6158243;23;1269;-95
2022/01/17 22:25:40;;;;;;;;;;;;;;;4.63;64.52;101711.19;6125188;23;1597;-94
2022/01/17 22:28:12;;;;;;;;;;;;;;;4.59;64.82;101704.47;6127243;23;1264;-96
2022/01/17 22:30:42;;;;;;;;;;;;;;;4.62;64.70;101702.38;6124004;23;1471;-94
2022/01/17 22:38:45;;;;;;;;;;;;;;;4.58;64.63;101686.81;6150652;23;1919;-95
2022/01/17 22:44:16;;;;;;;;;;;;;;;4.63;64.66;101684.53;6174724;23;1236;-95
2022/01/17 22:46:44;;;;;;;;;;;;;;;4.59;64.71;101673.31;6154991;23;1385;-94
2022/01/17 22:49:20;;;;;;;;;;;;;;;4.65;64.08;101669.19;6154519;23;1392;-95
2022/01/17 22:51:51;;;;;;;;;;;;;;;4.65;64.29;101661.19;6144906;23;1296;-94
2022/01/17 23:00:37;;;;;;;;;;;;;;;4.66;64.45;101698.38;6178750;23;1189;-94
2022/01/17 23:05:52;;;;;;;;;;;;;;;4.66;64.43;101705.56;6156039;23;1297;-94
2022/01/17 23:08:20;;;;;;;;;;;;;;;4.62;64.44;101705.03;6157015;23;1322;-95
2022/01/17 23:10:51;;;;;;;;;;;;;;;4.62;64.51;101709.50;6157230;23;1357;-94
2022/01/17 23:13:18;;;;;;;;;;;;;;;4.68;64.37;101711.59;6154028;23;1326;-94
2022/01/17 23:15:47;;;;;;;;;;;;;;;4.66;64.36;101702.88;6156739;23;1109;-94
2022/01/17 23:23:41;;;;;;;;;;;;;;;4.61;64.50;101700.66;6091712;23;1583;-95
2022/01/17 23:26:08;;;;;;;;;;;;;;;4.64;64.07;101699.53;6095768;23;1226;-96
2022/01/17 23:28:34;;;;;;;;;;;;;;;4.63;64.46;101689.84;6119637;23;1192;-95
2022/01/17 23:36:51;;;;;;;;;;;;;;;4.68;64.17;101695.59;6119206;23;1392;-95
2022/01/17 23:39:35;;;;;;;;;;;;;;;4.63;64.51;101687.19;6121974;23;1870;-96
2022/01/17 23:42:02;;;;;;;;;;;;;;;4.67;64.29;101692.03;6119731;23;1143;-94
2022/01/17 23:44:35;;;;;;;;;;;;;;;4.69;64.35;101691.91;6098782;23;1348;-94
2022/01/17 23:47:02;;;;;;;;;;;;;;;4.67;64.33;101697.38;6097679;23;1404;-94
2022/01/17 23:49:29;;;;;;;;;;;;;;;4.71;64.16;101695.28;6124148;23;1251;-93
2022/01/17 23:51:56;;;;;;;;;;;;;;;4.65;64.39;101686.03;6102291;23;1276;-95
2022/01/17 23:54:39;;;;;;;;;;;;;;;4.65;64.41;101698.56;6123266;23;1305;-94
